Parker Dam, California
Current Conditions -  °F | °C
As of 6:55 AM on Thursday 30 Oct 2014 (Local Time) from KHII Reporting Station
Clear Clear  
Wind Chill: 64°   Ceiling: Unl
Heat Index: 64°   Visibility: 10mi
Dew Point: 25°   Wind: 3mph
Humidity: 22%   Direction: 340°NNW
Pressure: 29.99"   Gusts: NA
Location:  34.29°N, 114.14°W
Report Text: KHII 301355Z AUTO 34003KT 10SM CLR 18/M04 A2999 RMK AO2
Loading
Personal Weather Stations






























Interactive Weather Map
Tropical Storm Tracking
New forecast layout! Learn more

10-Day Weather Forecast

Advertisements
Track Severe Weather on mobile